Time;durP1;ratioP1;P1;durP2;ratioP2;P2;SDS_P1;SDS_P2;PMS_P1;PMS_P2;Temp;Humidity;BMP_temperature;BMP_pressure;BME280_temperature;BME280_humidity;BME280_pressure;Samples;Min_cycle;Max_cycle;Signal;HPM_P1;HPM_P2
2021/11/06 00:00:06;;;;;;;11.60;6.27;;;;;;;;;;5113020;28;20628;-82
2021/11/06 00:02:33;;;;;;;10.33;6.10;;;;;;;;;;5113672;28;20381;-82
2021/11/06 00:05:01;;;;;;;10.63;6.30;;;;;;;;;;5113568;28;20256;-82
2021/11/06 00:07:28;;;;;;;8.30;6.67;;;;;;;;;;5113338;28;20299;-83
2021/11/06 00:09:55;;;;;;;7.37;6.67;;;;;;;;;;5112952;28;20225;-83
2021/11/06 00:12:25;;;;;;;9.73;6.37;;;;;;;;;;5115238;27;20210;-82
2021/11/06 00:14:52;;;;;;;10.47;6.40;;;;;;;;;;5113295;28;20195;-83
2021/11/06 00:17:19;;;;;;;8.47;6.63;;;;;;;;;;5113357;28;20267;-83
2021/11/06 00:19:47;;;;;;;10.47;6.40;;;;;;;;;;5112798;28;20237;-83
2021/11/06 00:22:14;;;;;;;9.10;6.90;;;;;;;;;;5113019;28;20195;-83
2021/11/06 00:24:41;;;;;;;9.27;7.40;;;;;;;;;;5112994;28;20598;-83
2021/11/06 00:27:09;;;;;;;7.70;6.23;;;;;;;;;;5113133;28;20248;-83
2021/11/06 00:29:38;;;;;;;7.77;5.83;;;;;;;;;;5112791;28;20648;-82
2021/11/06 00:32:06;;;;;;;6.90;6.07;;;;;;;;;;5112995;28;20191;-83
2021/11/06 00:34:33;;;;;;;7.33;6.23;;;;;;;;;;5112821;28;20191;-82
2021/11/06 00:37:01;;;;;;;7.23;6.23;;;;;;;;;;5112782;28;20293;-82
2021/11/06 00:39:28;;;;;;;10.73;6.43;;;;;;;;;;5112545;28;20200;-82
2021/11/06 00:41:56;;;;;;;8.00;6.37;;;;;;;;;;5112639;28;20242;-83
2021/11/06 00:44:24;;;;;;;7.70;6.63;;;;;;;;;;5112877;28;20258;-83
2021/11/06 00:46:53;;;;;;;9.10;6.67;;;;;;;;;;5112276;28;20267;-83
2021/11/06 00:49:20;;;;;;;8.60;6.63;;;;;;;;;;5112500;28;20260;-83
2021/11/06 00:51:47;;;;;;;7.27;6.00;;;;;;;;;;5112597;28;20200;-83
2021/11/06 00:54:14;;;;;;;7.77;5.43;;;;;;;;;;5112553;28;20630;-83
2021/11/06 00:56:42;;;;;;;11.53;5.53;;;;;;;;;;5112252;28;20233;-83
2021/11/06 00:59:09;;;;;;;8.83;5.03;;;;;;;;;;5112358;28;20231;-82
2021/11/06 01:01:37;;;;;;;14.27;5.93;;;;;;;;;;5112720;28;20204;-82
2021/11/06 01:04:07;;;;;;;11.93;5.73;;;;;;;;;;5112496;28;20197;-82
2021/11/06 01:06:34;;;;;;;9.50;5.90;;;;;;;;;;5111917;28;20201;-83
2021/11/06 01:09:01;;;;;;;6.83;5.83;;;;;;;;;;5112271;28;20701;-83
2021/11/06 01:11:29;;;;;;;7.60;6.70;;;;;;;;;;5112156;28;20200;-83
2021/11/06 01:13:56;;;;;;;6.97;6.27;;;;;;;;;;5112283;28;20254;-83
2021/11/06 01:16:23;;;;;;;10.20;6.73;;;;;;;;;;5110608;28;20648;-83
2021/11/06 01:18:51;;;;;;;10.23;6.57;;;;;;;;;;5111055;28;20580;-83
2021/11/06 01:21:20;;;;;;;8.57;6.87;;;;;;;;;;5112076;28;20191;-83
2021/11/06 01:23:47;;;;;;;8.30;5.70;;;;;;;;;;5112406;28;20241;-83
2021/11/06 01:26:15;;;;;;;7.47;4.87;;;;;;;;;;5111829;28;20205;-83
2021/11/06 01:28:43;;;;;;;8.13;5.60;;;;;;;;;;5112361;28;20584;-83
2021/11/06 01:31:10;;;;;;;9.97;5.60;;;;;;;;;;5112092;28;20205;-83
2021/11/06 01:33:38;;;;;;;7.53;5.00;;;;;;;;;;5112356;28;20201;-83
2021/11/06 01:36:05;;;;;;;6.80;5.07;;;;;;;;;;5111790;28;20200;-83
2021/11/06 01:38:34;;;;;;;10.20;5.40;;;;;;;;;;5112065;28;20596;-83
2021/11/06 01:41:02;;;;;;;8.17;5.13;;;;;;;;;;5111978;28;20195;-83
2021/11/06 01:43:29;;;;;;;8.03;5.93;;;;;;;;;;5111896;28;20226;-83
2021/11/06 01:45:57;;;;;;;7.00;5.53;;;;;;;;;;5111901;28;20249;-83
2021/11/06 01:48:25;;;;;;;9.27;5.70;;;;;;;;;;5111916;28;20199;-83
2021/11/06 01:50:53;;;;;;;9.33;6.07;;;;;;;;;;5111803;28;20278;-83
2021/11/06 01:53:20;;;;;;;10.77;5.57;;;;;;;;;;5111680;28;20232;-84
2021/11/06 01:55:50;;;;;;;10.47;5.33;;;;;;;;;;5111747;28;20248;-83
2021/11/06 01:58:17;;;;;;;9.47;5.17;;;;;;;;;;5114127;28;20234;-83
2021/11/06 02:00:44;;;;;;;8.00;5.30;;;;;;;;;;5115387;28;20189;-83
2021/11/06 02:03:13;;;;;;;9.10;6.17;;;;;;;;;;5116067;28;20628;-83
2021/11/06 02:05:41;;;;;;;10.17;5.97;;;;;;;;;;5115863;28;20199;-83
2021/11/06 02:08:08;;;;;;;12.77;5.80;;;;;;;;;;5115637;28;20255;-83
2021/11/06 02:10:36;;;;;;;6.23;5.63;;;;;;;;;;5124139;27;20282;-83
2021/11/06 02:13:05;;;;;;;8.90;5.77;;;;;;;;;;5115519;28;20253;-83
2021/11/06 02:15:32;;;;;;;9.37;5.60;;;;;;;;;;5115280;28;20195;-83
2021/11/06 02:17:59;;;;;;;10.47;4.97;;;;;;;;;;5115286;28;20555;-83
2021/11/06 02:20:26;;;;;;;5.47;4.87;;;;;;;;;;5115230;28;20249;-83
2021/11/06 02:22:55;;;;;;;7.17;4.33;;;;;;;;;;5115400;28;20238;-83
2021/11/06 02:25:23;;;;;;;11.57;5.37;;;;;;;;;;5114936;28;20201;-82
2021/11/06 02:27:51;;;;;;;9.23;5.70;;;;;;;;;;5115301;28;20294;-83
2021/11/06 02:30:19;;;;;;;7.90;5.50;;;;;;;;;;5115416;28;20640;-83
2021/11/06 02:32:47;;;;;;;9.13;5.47;;;;;;;;;;5115689;28;20250;-84
2021/11/06 02:35:15;;;;;;;10.07;6.27;;;;;;;;;;5114693;28;20560;-82
2021/11/06 02:37:43;;;;;;;12.33;5.60;;;;;;;;;;5115068;28;20660;-82
2021/11/06 02:40:13;;;;;;;7.87;5.53;;;;;;;;;;5114853;28;20290;-82
2021/11/06 02:42:41;;;;;;;9.50;5.63;;;;;;;;;;5115074;28;20183;-83
2021/11/06 02:45:10;;;;;;;7.73;5.43;;;;;;;;;;5114889;28;20702;-83
2021/11/06 02:47:38;;;;;;;7.90;5.33;;;;;;;;;;5115103;28;20210;-82
2021/11/06 02:50:06;;;;;;;9.00;6.03;;;;;;;;;;5114851;28;20218;-82
2021/11/06 02:52:34;;;;;;;8.23;6.40;;;;;;;;;;5114544;28;20199;-82
2021/11/06 02:55:01;;;;;;;10.00;5.17;;;;;;;;;;5114776;28;20194;-82
2021/11/06 02:57:30;;;;;;;8.33;4.83;;;;;;;;;;5114691;28;20783;-82
2021/11/06 02:59:57;;;;;;;10.10;5.03;;;;;;;;;;5114492;28;20197;-81
2021/11/06 03:02:25;;;;;;;6.03;4.83;;;;;;;;;;5114633;28;20228;-83
2021/11/06 03:04:52;;;;;;;8.13;4.70;;;;;;;;;;5114449;28;20289;-82
2021/11/06 03:07:20;;;;;;;8.43;4.87;;;;;;;;;;5114696;28;20197;-82
2021/11/06 03:09:47;;;;;;;8.53;4.63;;;;;;;;;;5114145;28;20225;-82
2021/11/06 03:12:17;;;;;;;10.13;4.80;;;;;;;;;;5114254;28;20655;-82
2021/11/06 03:14:46;;;;;;;7.73;5.70;;;;;;;;;;5114353;28;20638;-82
2021/11/06 03:17:13;;;;;;;8.30;5.63;;;;;;;;;;5114209;28;20238;-82
2021/11/06 03:19:41;;;;;;;10.30;5.93;;;;;;;;;;5114548;28;20244;-82
2021/11/06 03:22:10;;;;;;;7.17;5.17;;;;;;;;;;5114336;28;20230;-82
2021/11/06 03:24:37;;;;;;;7.80;5.53;;;;;;;;;;5113874;28;20191;-82
2021/11/06 03:27:05;;;;;;;9.53;5.57;;;;;;;;;;5113903;28;20670;-82
2021/11/06 03:29:33;;;;;;;6.67;5.60;;;;;;;;;;5114148;28;20232;-82
2021/11/06 03:32:02;;;;;;;7.80;5.30;;;;;;;;;;5113799;28;20202;-82
2021/11/06 03:34:29;;;;;;;9.57;5.57;;;;;;;;;;5114031;28;20635;-82
2021/11/06 03:36:57;;;;;;;8.83;5.60;;;;;;;;;;5113715;28;20199;-82
2021/11/06 03:39:25;;;;;;;5.93;5.37;;;;;;;;;;5114209;28;20198;-82
2021/11/06 03:41:52;;;;;;;6.90;5.30;;;;;;;;;;5115085;27;20200;-83
2021/11/06 03:44:19;;;;;;;11.83;5.60;;;;;;;;;;5133903;27;20202;-84
2021/11/06 03:46:47;;;;;;;7.37;5.27;;;;;;;;;;5134379;27;20191;-84
2021/11/06 03:49:16;;;;;;;7.87;6.27;;;;;;;;;;5133894;27;20198;-84
2021/11/06 03:51:43;;;;;;;8.93;5.27;;;;;;;;;;5133839;27;20577;-83
2021/11/06 03:54:10;;;;;;;10.73;6.70;;;;;;;;;;5133989;27;20292;-83
2021/11/06 03:56:38;;;;;;;11.30;5.77;;;;;;;;;;5133895;27;20188;-82
2021/11/06 03:59:05;;;;;;;13.70;8.63;;;;;;;;;;5133847;27;20233;-83
2021/11/06 04:01:34;;;;;;;9.03;5.33;;;;;;;;;;5133614;27;20306;-82
2021/11/06 04:04:02;;;;;;;12.53;5.13;;;;;;;;;;5133913;27;20278;-83
2021/11/06 04:06:32;;;;;;;8.03;5.33;;;;;;;;;;5133500;27;20730;-82
2021/11/06 04:09:00;;;;;;;12.10;5.70;;;;;;;;;;5133808;27;20625;-82
2021/11/06 04:11:27;;;;;;;8.80;5.23;;;;;;;;;;5133333;27;20227;-82
2021/11/06 04:13:54;;;;;;;8.53;5.63;;;;;;;;;;5133457;27;20579;-83
2021/11/06 04:16:22;;;;;;;11.03;5.70;;;;;;;;;;5133423;27;20261;-84
2021/11/06 04:18:49;;;;;;;11.37;5.43;;;;;;;;;;5133557;27;20241;-83
2021/11/06 04:21:16;;;;;;;13.20;5.50;;;;;;;;;;5132476;27;20234;-81
2021/11/06 04:23:45;;;;;;;10.57;5.50;;;;;;;;;;5133402;27;20734;-84
2021/11/06 04:26:13;;;;;;;8.60;5.50;;;;;;;;;;5133184;27;20633;-82
2021/11/06 04:28:40;;;;;;;15.73;6.83;;;;;;;;;;5133234;27;20194;-82
2021/11/06 04:31:07;;;;;;;13.87;6.10;;;;;;;;;;5133092;27;20257;-82
2021/11/06 04:33:34;;;;;;;8.80;6.87;;;;;;;;;;5133565;27;20204;-82
2021/11/06 04:36:02;;;;;;;10.17;6.50;;;;;;;;;;5133289;27;20247;-82
2021/11/06 04:38:30;;;;;;;11.43;5.57;;;;;;;;;;5133291;27;20202;-82
2021/11/06 04:40:58;;;;;;;12.20;5.93;;;;;;;;;;5132836;27;20197;-82
2021/11/06 04:43:26;;;;;;;12.50;5.70;;;;;;;;;;5133249;27;20290;-82
2021/11/06 04:45:54;;;;;;;9.73;5.97;;;;;;;;;;5132872;27;20244;-82
2021/11/06 04:48:21;;;;;;;21.60;9.37;;;;;;;;;;5133178;27;20202;-82
2021/11/06 04:50:48;;;;;;;256.43;162.20;;;;;;;;;;5132688;27;20222;-82
2021/11/06 04:53:16;;;;;;;172.63;109.80;;;;;;;;;;5133036;27;20194;-82
2021/11/06 04:55:43;;;;;;;78.67;49.57;;;;;;;;;;5132859;27;20195;-83
2021/11/06 04:58:12;;;;;;;84.97;55.30;;;;;;;;;;5133065;27;20253;-82
2021/11/06 05:00:39;;;;;;;29.97;18.73;;;;;;;;;;5133077;27;20205;-82
2021/11/06 05:03:07;;;;;;;21.40;10.10;;;;;;;;;;5132757;27;20296;-82
2021/11/06 05:05:34;;;;;;;13.00;7.53;;;;;;;;;;5132877;27;20190;-83
2021/11/06 05:08:01;;;;;;;11.87;6.60;;;;;;;;;;5132888;27;20195;-82
2021/11/06 05:10:29;;;;;;;64.97;48.03;;;;;;;;;;5132615;27;20716;-82
2021/11/06 05:12:56;;;;;;;47.27;32.70;;;;;;;;;;5132677;27;20205;-82
2021/11/06 05:15:25;;;;;;;18.93;12.70;;;;;;;;;;5129793;27;20704;-83
2021/11/06 05:17:54;;;;;;;15.07;7.13;;;;;;;;;;5132677;28;20761;-84
2021/11/06 05:20:22;;;;;;;34.43;19.87;;;;;;;;;;5132472;27;20198;-83
2021/11/06 05:22:49;;;;;;;12.07;7.30;;;;;;;;;;5132548;28;20238;-83
2021/11/06 05:25:17;;;;;;;19.13;8.30;;;;;;;;;;5132267;27;20265;-83
2021/11/06 05:27:44;;;;;;;19.73;15.33;;;;;;;;;;5133010;27;20197;-83
2021/11/06 05:30:13;;;;;;;19.40;7.07;;;;;;;;;;5132386;28;20232;-83
2021/11/06 05:32:42;;;;;;;14.97;6.50;;;;;;;;;;5135808;27;20190;-83
2021/11/06 05:35:11;;;;;;;15.63;7.77;;;;;;;;;;5136456;27;20329;-83
2021/11/06 05:37:38;;;;;;;10.93;6.70;;;;;;;;;;5136822;27;20194;-83
2021/11/06 05:40:07;;;;;;;11.80;6.53;;;;;;;;;;5136807;27;20575;-83
2021/11/06 05:42:35;;;;;;;43.97;31.63;;;;;;;;;;5136602;27;20669;-83
2021/11/06 05:45:03;;;;;;;24.83;20.03;;;;;;;;;;5136417;27;20626;-82
2021/11/06 05:47:31;;;;;;;38.77;30.70;;;;;;;;;;5136280;27;20201;-83
2021/11/06 05:49:59;;;;;;;21.17;11.60;;;;;;;;;;5136241;27;20313;-83
2021/11/06 05:52:27;;;;;;;29.47;25.03;;;;;;;;;;5136327;27;20205;-83
2021/11/06 05:54:54;;;;;;;20.93;14.03;;;;;;;;;;5136192;27;20290;-83
2021/11/06 05:57:21;;;;;;;17.03;15.23;;;;;;;;;;5135855;27;20610;-83
2021/11/06 05:59:49;;;;;;;21.70;13.90;;;;;;;;;;5136238;27;20300;-83
2021/11/06 06:02:16;;;;;;;17.17;9.13;;;;;;;;;;5136106;27;20273;-83
2021/11/06 06:04:43;;;;;;;19.20;8.37;;;;;;;;;;5136419;27;20191;-83
2021/11/06 06:07:12;;;;;;;20.03;14.07;;;;;;;;;;5135412;27;20187;-83
2021/11/06 06:09:39;;;;;;;14.60;7.60;;;;;;;;;;5126887;27;20196;-83
2021/11/06 06:12:08;;;;;;;11.67;6.40;;;;;;;;;;5121951;27;20714;-83
2021/11/06 06:14:35;;;;;;;17.73;6.80;;;;;;;;;;5135785;27;20202;-83
2021/11/06 06:17:02;;;;;;;21.07;11.57;;;;;;;;;;5135813;27;20194;-83
2021/11/06 06:19:30;;;;;;;22.13;11.47;;;;;;;;;;5135905;27;20194;-83
2021/11/06 06:21:57;;;;;;;15.93;9.93;;;;;;;;;;5129749;27;20199;-83
2021/11/06 06:24:26;;;;;;;15.83;8.73;;;;;;;;;;5135220;27;20289;-83
2021/11/06 06:26:53;;;;;;;14.50;6.20;;;;;;;;;;5135514;27;20285;-83
2021/11/06 06:29:20;;;;;;;14.23;6.43;;;;;;;;;;5129614;27;20670;-83
2021/11/06 06:31:47;;;;;;;13.30;6.27;;;;;;;;;;5135506;27;20222;-83
2021/11/06 06:34:15;;;;;;;17.10;6.20;;;;;;;;;;5135416;27;20285;-83
2021/11/06 06:36:42;;;;;;;10.40;5.43;;;;;;;;;;5135366;27;20663;-83
2021/11/06 06:39:09;;;;;;;333.80;186.43;;;;;;;;;;5126829;27;20263;-83
2021/11/06 06:41:38;;;;;;;114.13;70.97;;;;;;;;;;5114841;28;20663;-83
2021/11/06 06:44:06;;;;;;;40.27;24.60;;;;;;;;;;5113801;28;20200;-83
2021/11/06 06:46:33;;;;;;;26.23;16.53;;;;;;;;;;5114681;28;20195;-83
2021/11/06 06:49:00;;;;;;;17.13;10.90;;;;;;;;;;5114751;28;20191;-83
2021/11/06 06:51:27;;;;;;;12.80;9.37;;;;;;;;;;5114262;28;20219;-83
2021/11/06 06:53:55;;;;;;;16.23;9.73;;;;;;;;;;5114823;28;20198;-83
2021/11/06 06:56:22;;;;;;;15.77;7.40;;;;;;;;;;5114820;28;20302;-83
2021/11/06 06:58:51;;;;;;;13.60;6.60;;;;;;;;;;5114443;28;20640;-83
2021/11/06 07:01:18;;;;;;;13.27;7.97;;;;;;;;;;5116632;27;20575;-84
2021/11/06 07:03:46;;;;;;;15.47;8.90;;;;;;;;;;5126210;27;20242;-83
2021/11/06 07:06:13;;;;;;;14.70;8.43;;;;;;;;;;5114693;28;20200;-83
2021/11/06 07:08:40;;;;;;;15.70;8.17;;;;;;;;;;5114341;28;20262;-84
2021/11/06 07:11:08;;;;;;;15.47;8.33;;;;;;;;;;5114350;28;20277;-83
2021/11/06 07:13:37;;;;;;;13.07;7.57;;;;;;;;;;5114450;28;20255;-84
2021/11/06 07:16:06;;;;;;;12.87;7.87;;;;;;;;;;5114042;28;20240;-83
2021/11/06 07:18:34;;;;;;;14.13;7.83;;;;;;;;;;5114576;28;20237;-84
2021/11/06 07:21:01;;;;;;;13.10;8.17;;;;;;;;;;5114085;28;20686;-84
2021/11/06 07:23:28;;;;;;;14.43;6.50;;;;;;;;;;5114266;28;20205;-84
2021/11/06 07:26:00;;;;;;;15.20;7.27;;;;;;;;;;5118511;27;20199;-83
2021/11/06 07:28:28;;;;;;;15.77;5.80;;;;;;;;;;5129372;27;20293;-83
2021/11/06 07:30:55;;;;;;;10.53;6.60;;;;;;;;;;5131442;27;20268;-83
2021/11/06 07:33:24;;;;;;;10.17;6.20;;;;;;;;;;5133621;27;20187;-83
2021/11/06 07:35:51;;;;;;;16.97;6.27;;;;;;;;;;5133122;27;20205;-83
2021/11/06 07:38:19;;;;;;;15.30;9.73;;;;;;;;;;5134106;27;20306;-83
2021/11/06 07:40:46;;;;;;;17.40;8.23;;;;;;;;;;5132396;27;20739;-83
2021/11/06 07:43:14;;;;;;;14.03;7.60;;;;;;;;;;5129833;27;20241;-83
2021/11/06 07:45:44;;;;;;;18.67;8.60;;;;;;;;;;5132971;27;20191;-83
2021/11/06 07:48:11;;;;;;;18.63;7.47;;;;;;;;;;5133583;27;20216;-83
2021/11/06 07:50:40;;;;;;;15.70;7.50;;;;;;;;;;5133126;27;20728;-83
2021/11/06 07:53:08;;;;;;;17.30;6.47;;;;;;;;;;5133294;27;20198;-83
2021/11/06 07:55:36;;;;;;;16.53;6.37;;;;;;;;;;5132580;27;20205;-83
2021/11/06 07:58:03;;;;;;;16.13;7.87;;;;;;;;;;5132781;27;20262;-83
2021/11/06 08:00:31;;;;;;;17.13;6.47;;;;;;;;;;5132781;27;20690;-83
2021/11/06 08:02:58;;;;;;;14.50;7.10;;;;;;;;;;5133050;27;20206;-83
2021/11/06 08:05:25;;;;;;;14.07;7.37;;;;;;;;;;5128068;27;20282;-84
2021/11/06 08:07:54;;;;;;;22.63;10.43;;;;;;;;;;5123626;27;20285;-83
2021/11/06 08:10:21;;;;;;;15.13;9.37;;;;;;;;;;5125344;27;20207;-84
2021/11/06 08:12:48;;;;;;;18.03;7.47;;;;;;;;;;5112665;27;20211;-83
2021/11/06 08:15:17;;;;;;;13.80;6.60;;;;;;;;;;5111941;28;20257;-84
2021/11/06 08:17:44;;;;;;;12.83;7.00;;;;;;;;;;5112113;28;20199;-83
2021/11/06 08:20:12;;;;;;;12.80;8.47;;;;;;;;;;5111350;28;20578;-83
2021/11/06 08:22:39;;;;;;;12.60;7.63;;;;;;;;;;5112073;28;20281;-84
2021/11/06 08:25:09;;;;;;;18.27;7.80;;;;;;;;;;5111853;28;20573;-84
2021/11/06 08:27:36;;;;;;;13.07;7.17;;;;;;;;;;5111961;28;20191;-84
2021/11/06 08:30:04;;;;;;;12.17;6.60;;;;;;;;;;5128658;27;20202;-84
2021/11/06 08:32:31;;;;;;;15.87;11.23;;;;;;;;;;5132093;27;20601;-84
2021/11/06 08:34:58;;;;;;;10.87;7.23;;;;;;;;;;5132428;27;20251;-83
2021/11/06 08:37:26;;;;;;;24.17;8.07;;;;;;;;;;5126052;27;20198;-84
2021/11/06 08:39:53;;;;;;;15.40;7.00;;;;;;;;;;5132094;27;20555;-83
2021/11/06 08:42:22;;;;;;;20.30;6.20;;;;;;;;;;5131991;27;20667;-83
2021/11/06 08:44:49;;;;;;;17.47;6.63;;;;;;;;;;5132327;27;20198;-84
2021/11/06 08:47:16;;;;;;;15.03;7.17;;;;;;;;;;5131927;27;20263;-84
2021/11/06 08:49:44;;;;;;;19.80;6.67;;;;;;;;;;5132537;27;20281;-83
2021/11/06 08:52:12;;;;;;;21.10;7.47;;;;;;;;;;5133070;27;20309;-83
2021/11/06 08:54:39;;;;;;;17.93;5.70;;;;;;;;;;5133415;27;20198;-84
2021/11/06 08:57:06;;;;;;;13.17;6.00;;;;;;;;;;5132127;27;20281;-84
2021/11/06 08:59:35;;;;;;;11.23;6.23;;;;;;;;;;5122319;27;20195;-81
2021/11/06 09:02:02;;;;;;;19.77;6.37;;;;;;;;;;5113842;27;20206;-81
2021/11/06 09:04:30;;;;;;;13.57;5.70;;;;;;;;;;5129878;27;20199;-81
2021/11/06 09:06:57;;;;;;;14.10;5.47;;;;;;;;;;5132366;27;20220;-82
2021/11/06 09:09:25;;;;;;;15.23;5.97;;;;;;;;;;5132734;27;20197;-81
2021/11/06 09:11:54;;;;;;;10.83;6.70;;;;;;;;;;5132695;27;20229;-81
2021/11/06 09:14:21;;;;;;;18.40;6.77;;;;;;;;;;5132886;27;20198;-81
2021/11/06 09:16:50;;;;;;;11.97;6.63;;;;;;;;;;5132733;27;20726;-81
2021/11/06 09:19:18;;;;;;;14.20;6.07;;;;;;;;;;5133037;27;20202;-81
2021/11/06 09:21:46;;;;;;;15.10;6.60;;;;;;;;;;5132598;27;20247;-80
2021/11/06 09:24:14;;;;;;;11.20;6.03;;;;;;;;;;5132871;27;20195;-81
2021/11/06 09:26:44;;;;;;;14.57;6.80;;;;;;;;;;5132584;27;20247;-81
2021/11/06 09:29:12;;;;;;;15.07;6.03;;;;;;;;;;5132676;27;20183;-81
2021/11/06 09:31:41;;;;;;;14.60;7.60;;;;;;;;;;5132486;27;20670;-81
2021/11/06 09:34:11;;;;;;;14.97;6.37;;;;;;;;;;5132699;27;20187;-81
2021/11/06 09:36:39;;;;;;;15.87;6.50;;;;;;;;;;5132852;27;20195;-81
2021/11/06 09:39:10;;;;;;;15.73;6.57;;;;;;;;;;5132382;27;20195;-81
2021/11/06 09:41:38;;;;;;;11.77;6.67;;;;;;;;;;5132850;27;20535;-81
2021/11/06 09:44:06;;;;;;;16.17;7.53;;;;;;;;;;5132576;27;20194;-82
2021/11/06 09:46:33;;;;;;;13.37;8.17;;;;;;;;;;5124908;27;20199;-81
2021/11/06 09:49:01;;;;;;;11.07;7.70;;;;;;;;;;5114436;28;20211;-81
2021/11/06 09:51:30;;;;;;;14.50;7.27;;;;;;;;;;5111828;28;20749;-81
2021/11/06 09:53:58;;;;;;;12.97;7.40;;;;;;;;;;5112282;28;20196;-88
2021/11/06 09:56:26;;;;;;;14.77;7.50;;;;;;;;;;5111869;28;20560;-84
2021/11/06 09:59:00;;;;;;;15.20;7.43;;;;;;;;;;5111807;28;20343;-86
2021/11/06 10:01:27;;;;;;;16.33;7.60;;;;;;;;;;5112419;28;20192;-86
2021/11/06 10:03:55;;;;;;;10.07;6.73;;;;;;;;;;5112321;28;20248;-85
2021/11/06 10:06:23;;;;;;;11.03;6.80;;;;;;;;;;5111729;28;20196;-85
2021/11/06 10:08:53;;;;;;;12.43;6.37;;;;;;;;;;5111902;28;20199;-85
2021/11/06 10:11:22;;;;;;;18.83;6.70;;;;;;;;;;5111660;28;20772;-90
2021/11/06 10:13:53;;;;;;;11.93;6.87;;;;;;;;;;5112195;28;20204;-85
2021/11/06 10:16:21;;;;;;;8.67;7.13;;;;;;;;;;5111949;28;20256;-85
2021/11/06 10:18:48;;;;;;;7.70;5.90;;;;;;;;;;5113307;28;20191;-85
2021/11/06 10:21:16;;;;;;;12.57;5.73;;;;;;;;;;5115637;28;20229;-85
2021/11/06 10:23:44;;;;;;;18.47;7.37;;;;;;;;;;5115413;28;20199;-84
2021/11/06 10:26:15;;;;;;;9.37;6.03;;;;;;;;;;5114904;28;20260;-85
2021/11/06 10:28:43;;;;;;;15.63;6.80;;;;;;;;;;5115326;28;20180;-84
2021/11/06 10:31:10;;;;;;;11.27;7.70;;;;;;;;;;5115009;28;20686;-84
2021/11/06 10:33:45;;;;;;;21.03;6.63;;;;;;;;;;5114930;28;20225;-84
2021/11/06 10:36:24;;;;;;;14.77;6.97;;;;;;;;;;5115235;28;20267;-84
2021/11/06 10:39:06;;;;;;;10.43;6.07;;;;;;;;;;5115176;28;20199;-85
2021/11/06 10:41:37;;;;;;;18.20;5.83;;;;;;;;;;5114765;28;20184;-84
2021/11/06 10:44:05;;;;;;;18.27;6.17;;;;;;;;;;5115081;28;20187;-85
2021/11/06 10:46:33;;;;;;;12.10;5.40;;;;;;;;;;5114851;28;20195;-85
2021/11/06 10:49:02;;;;;;;11.53;5.27;;;;;;;;;;5114179;28;20290;-84
2021/11/06 10:51:30;;;;;;;15.77;6.22;;;;;;;;;;5113279;28;20199;-84
2021/11/06 10:53:59;;;;;;;15.17;6.13;;;;;;;;;;5114590;28;20190;-85
2021/11/06 10:56:29;;;;;;;11.10;6.35;;;;;;;;;;5114736;28;20187;-85
2021/11/06 10:58:59;;;;;;;15.63;6.03;;;;;;;;;;5114501;28;20259;-85
2021/11/06 11:01:28;;;;;;;11.95;6.47;;;;;;;;;;5114687;28;20274;-84
2021/11/06 11:04:04;;;;;;;20.70;6.50;;;;;;;;;;5114698;28;20260;-84
2021/11/06 11:06:37;;;;;;;14.68;5.88;;;;;;;;;;5113274;28;20612;-85
2021/11/06 11:09:09;;;;;;;13.98;7.07;;;;;;;;;;5113605;28;20195;-85
2021/11/06 11:11:37;;;;;;;13.80;5.90;;;;;;;;;;5113253;28;20195;-84
2021/11/06 11:14:07;;;;;;;11.10;6.57;;;;;;;;;;5113828;28;20619;-85
2021/11/06 11:16:36;;;;;;;17.88;5.60;;;;;;;;;;5113288;28;20198;-85
2021/11/06 11:19:06;;;;;;;16.45;6.35;;;;;;;;;;5125117;27;20210;-86
2021/11/06 11:21:38;;;;;;;14.40;5.60;;;;;;;;;;5133799;27;20178;-84
2021/11/06 11:24:07;;;;;;;21.63;7.30;;;;;;;;;;5131082;27;20194;-85
2021/11/06 11:26:36;;;;;;;7.83;5.90;;;;;;;;;;5123071;27;20628;-86
2021/11/06 11:29:07;;;;;;;10.83;6.07;;;;;;;;;;5114360;27;20203;-85
2021/11/06 11:31:34;;;;;;;12.37;6.33;;;;;;;;;;5129278;27;21569;-86
2021/11/06 11:34:02;;;;;;;18.63;6.10;;;;;;;;;;5119411;27;20244;-86
2021/11/06 11:36:31;;;;;;;15.80;6.40;;;;;;;;;;5128593;27;20226;-85
2021/11/06 11:38:59;;;;;;;13.68;7.15;;;;;;;;;;5134552;27;20244;-85
2021/11/06 11:42:07;;;;;;;13.57;5.50;;;;;;;;;;5134623;27;20203;-86
2021/11/06 11:44:47;;;;;;;14.35;6.93;;;;;;;;;;5134440;27;20183;-86
2021/11/06 11:47:19;;;;;;;16.85;6.28;;;;;;;;;;5134282;27;20240;-89
2021/11/06 11:49:47;;;;;;;10.70;6.40;;;;;;;;;;5135202;27;20267;-87
2021/11/06 11:52:27;;;;;;;10.25;6.28;;;;;;;;;;5134413;27;20225;-86
2021/11/06 11:54:59;;;;;;;9.27;6.40;;;;;;;;;;5134292;27;20239;-86
2021/11/06 11:57:27;;;;;;;12.23;5.93;;;;;;;;;;5133978;27;20238;-86
2021/11/06 11:59:56;;;;;;;10.38;6.18;;;;;;;;;;5134362;27;20179;-85
2021/11/06 12:02:26;;;;;;;19.65;6.25;;;;;;;;;;5134451;27;20632;-86
2021/11/06 12:05:45;;;;;;;13.25;6.45;;;;;;;;;;5133948;27;20190;-86
2021/11/06 12:08:37;;;;;;;16.27;6.07;;;;;;;;;;5071188;28;20251;-87
2021/11/06 12:11:20;;;;;;;13.88;5.72;;;;;;;;;;5064605;28;20201;-86
2021/11/06 12:13:50;;;;;;;13.05;5.55;;;;;;;;;;5052823;28;20595;-86
2021/11/06 12:16:21;;;;;;;14.27;6.13;;;;;;;;;;5065276;28;20197;-85
2021/11/06 12:19:01;;;;;;;11.20;6.35;;;;;;;;;;5060620;28;20201;-86
2021/11/06 12:21:34;;;;;;;13.10;6.83;;;;;;;;;;5055513;28;20216;-86
2021/11/06 12:24:21;;;;;;;12.40;6.23;;;;;;;;;;5070179;28;20693;-86
2021/11/06 12:26:53;;;;;;;15.97;5.80;;;;;;;;;;5070467;28;20232;-86
2021/11/06 12:29:39;;;;;;;10.87;5.70;;;;;;;;;;5070618;28;20197;-86
2021/11/06 12:32:15;;;;;;;13.60;6.90;;;;;;;;;;5070128;28;20252;-85
2021/11/06 12:34:46;;;;;;;14.07;5.97;;;;;;;;;;5070263;28;20230;-85
2021/11/06 12:37:29;;;;;;;11.77;6.07;;;;;;;;;;5070413;28;20185;-85
2021/11/06 12:39:57;;;;;;;12.87;6.67;;;;;;;;;;5123427;27;20260;-85
2021/11/06 12:42:25;;;;;;;12.67;8.37;;;;;;;;;;5130191;27;20219;-85
2021/11/06 12:44:55;;;;;;;16.13;7.00;;;;;;;;;;5121577;27;20211;-85
2021/11/06 12:47:25;;;;;;;14.53;7.17;;;;;;;;;;5112934;28;20583;-86
2021/11/06 12:49:53;;;;;;;17.67;9.33;;;;;;;;;;5112860;28;20272;-85
2021/11/06 12:52:22;;;;;;;16.67;8.93;;;;;;;;;;5112425;28;20227;-86
2021/11/06 12:54:50;;;;;;;16.57;9.70;;;;;;;;;;5112791;28;20635;-85
2021/11/06 12:57:34;;;;;;;16.13;9.00;;;;;;;;;;5112255;28;20188;-85
2021/11/06 13:00:02;;;;;;;21.40;12.23;;;;;;;;;;5123686;27;20681;-85
2021/11/06 13:03:00;;;;;;;20.70;12.13;;;;;;;;;;5133477;27;20277;-85
2021/11/06 13:05:41;;;;;;;18.37;11.10;;;;;;;;;;5096998;27;20745;-85
2021/11/06 13:08:16;;;;;;;14.27;10.37;;;;;;;;;;5133093;27;20274;-86
2021/11/06 13:10:45;;;;;;;16.53;10.63;;;;;;;;;;5132910;27;20201;-86
2021/11/06 13:13:16;;;;;;;18.03;10.13;;;;;;;;;;5133234;27;20620;-85
2021/11/06 13:15:45;;;;;;;19.43;12.13;;;;;;;;;;5132843;27;20183;-86
2021/11/06 13:18:16;;;;;;;20.40;12.70;;;;;;;;;;5132798;27;20673;-86
2021/11/06 13:20:44;;;;;;;20.80;11.17;;;;;;;;;;5132971;27;20199;-85
2021/11/06 13:23:12;;;;;;;17.57;11.07;;;;;;;;;;5133001;27;20191;-85
2021/11/06 13:25:41;;;;;;;12.63;9.00;;;;;;;;;;5132850;27;20565;-85
2021/11/06 13:28:09;;;;;;;15.57;9.23;;;;;;;;;;5132802;27;20198;-86
2021/11/06 13:30:50;;;;;;;16.87;10.30;;;;;;;;;;5131833;27;20190;-85
2021/11/06 13:33:30;;;;;;;13.97;10.20;;;;;;;;;;5125400;27;20203;-85
2021/11/06 13:35:59;;;;;;;19.93;9.97;;;;;;;;;;5111835;28;20187;-85
2021/11/06 13:38:35;;;;;;;15.93;9.53;;;;;;;;;;5112583;28;20252;-85
2021/11/06 13:41:06;;;;;;;13.83;8.03;;;;;;;;;;5129182;28;20674;-86
2021/11/06 13:43:36;;;;;;;19.10;10.13;;;;;;;;;;5132728;28;20187;-86
2021/11/06 13:46:30;;;;;;;15.03;8.57;;;;;;;;;;5132845;27;20649;-86
2021/11/06 13:49:03;;;;;;;16.27;8.03;;;;;;;;;;5132509;28;20182;-86
2021/11/06 13:51:33;;;;;;;16.07;7.40;;;;;;;;;;5132630;28;20193;-86
2021/11/06 13:54:14;;;;;;;14.03;7.17;;;;;;;;;;5136306;27;20221;-86
2021/11/06 13:56:47;;;;;;;18.93;7.10;;;;;;;;;;5136259;27;20187;-85
2021/11/06 13:59:15;;;;;;;17.57;6.93;;;;;;;;;;5136535;27;20640;-85
2021/11/06 14:01:42;;;;;;;16.93;6.70;;;;;;;;;;5136313;27;20675;-85
2021/11/06 14:04:13;;;;;;;16.50;9.03;;;;;;;;;;5135804;27;20547;-85
2021/11/06 14:06:40;;;;;;;10.97;6.13;;;;;;;;;;5115854;28;20184;-85
2021/11/06 14:09:08;;;;;;;17.67;7.53;;;;;;;;;;5116254;28;20551;-86
2021/11/06 14:11:53;;;;;;;12.87;8.57;;;;;;;;;;5115588;28;20191;-86
2021/11/06 14:14:22;;;;;;;22.67;12.50;;;;;;;;;;5115594;28;20252;-86
2021/11/06 14:17:07;;;;;;;13.63;8.70;;;;;;;;;;5115635;27;20721;-85
2021/11/06 14:19:50;;;;;;;75.93;44.43;;;;;;;;;;5121190;27;20206;-86
2021/11/06 14:22:23;;;;;;;63.83;45.60;;;;;;;;;;5121926;27;20224;-85
2021/11/06 14:24:50;;;;;;;40.77;29.57;;;;;;;;;;5124371;27;20190;-85
2021/11/06 14:27:18;;;;;;;17.67;12.33;;;;;;;;;;5135864;27;20197;-86
2021/11/06 14:30:00;;;;;;;24.23;17.23;;;;;;;;;;5136288;27;20571;-86
2021/11/06 14:32:28;;;;;;;17.60;15.43;;;;;;;;;;5135813;27;20222;-86
2021/11/06 14:35:06;;;;;;;17.43;10.23;;;;;;;;;;5135625;27;20195;-87
2021/11/06 14:37:33;;;;;;;29.27;20.67;;;;;;;;;;5135785;27;20182;-85
2021/11/06 14:40:06;;;;;;;19.23;13.13;;;;;;;;;;5135619;27;20212;-85
2021/11/06 14:42:35;;;;;;;16.57;9.93;;;;;;;;;;5135817;27;20194;-86